KCPS/CPS METAR and TAF weather

Enter ICAO airport designator
Station Type Date Time Source
KCPS METAR 2020/09/20 06:53 UTC NOAA

KCPS 200653Z AUTO 00000KT 10SM CLR 08/06 A3029 RMK AO2 SLP256 T00780061


Station Type Date Time Source
KCPS Decoded METAR 2020/09/20 06:53 UTC NOAA

ST LOUIS DOWNTOWN AIRPORT, IL, United States (KCPS) 38-34N 090-09W 126M
Sep 20, 2020 - 02:53 AM EDT / 2020.09.20 0653 UTC
Wind: Calm:0
Visibility: 10 mile(s):0
Sky conditions: clear
Temperature: 46.0 F (7.8 C)
Dew Point: 43.0 F (6.1 C)
Relative Humidity: 88%
Pressure (altimeter): 30.29 in. Hg (1025 hPa)
ob: KCPS 200653Z AUTO 00000KT 10SM CLR 08/06 A3029 RMK AO2 SLP256 T00780061
cycle: 7

Station Type Date Time Source
KCPS TAF 2020/09/20 06:22 UTC NOAA

TAF KCPS 200520Z 2006/2106 VRB04KT P6SM SKC
FM201600 11007G14KT P6SM SKC
FM210000 11005KT P6SM SKC

Example: see airport list